sensor_id;sensor_type;location;lat;lon;timestamp;pressure;altitude;pressure_sealevel;temperature;humidity
39455;BME280;25155;41.890;23.446;2023-01-28T00:01:29;90906.50;;;-0.65;72.84
39455;BME280;25155;41.890;23.446;2023-01-28T00:03:57;90906.50;;;-0.65;73.07
39455;BME280;25155;41.890;23.446;2023-01-28T00:06:25;90908.59;;;-0.62;73.60
39455;BME280;25155;41.890;23.446;2023-01-28T00:08:53;90910.13;;;-0.61;73.69
39455;BME280;25155;41.890;23.446;2023-01-28T00:11:21;90909.44;;;-0.56;73.73
39455;BME280;25155;41.890;23.446;2023-01-28T00:13:49;90904.53;;;-0.57;73.28
39455;BME280;25155;41.890;23.446;2023-01-28T00:16:17;90909.19;;;-0.54;73.93
39455;BME280;25155;41.890;23.446;2023-01-28T00:18:45;90911.00;;;-0.55;73.92
39455;BME280;25155;41.890;23.446;2023-01-28T00:21:14;90912.00;;;-0.56;73.52
39455;BME280;25155;41.890;23.446;2023-01-28T00:23:42;90910.75;;;-0.53;73.65
39455;BME280;25155;41.890;23.446;2023-01-28T00:26:14;90913.69;;;-0.84;74.38
39455;BME280;25155;41.890;23.446;2023-01-28T00:28:42;90914.44;;;-0.66;74.55
39455;BME280;25155;41.890;23.446;2023-01-28T00:31:11;90916.09;;;-0.60;74.43
39455;BME280;25155;41.890;23.446;2023-01-28T00:33:42;90908.38;;;-0.60;74.30
39455;BME280;25155;41.890;23.446;2023-01-28T00:36:10;90920.56;;;-0.50;74.25
39455;BME280;25155;41.890;23.446;2023-01-28T00:38:37;90920.66;;;-0.45;73.85
39455;BME280;25155;41.890;23.446;2023-01-28T00:41:08;90921.94;;;-0.43;74.15
39455;BME280;25155;41.890;23.446;2023-01-28T00:43:38;90927.88;;;-0.42;73.65
39455;BME280;25155;41.890;23.446;2023-01-28T00:46:07;90924.53;;;-0.43;73.68
39455;BME280;25155;41.890;23.446;2023-01-28T00:48:35;90927.41;;;-0.39;73.72
39455;BME280;25155;41.890;23.446;2023-01-28T00:51:04;90930.78;;;-0.38;73.70
39455;BME280;25155;41.890;23.446;2023-01-28T00:53:33;90928.38;;;-0.45;73.92
39455;BME280;25155;41.890;23.446;2023-01-28T00:56:02;90934.06;;;-0.43;74.06
39455;BME280;25155;41.890;23.446;2023-01-28T00:58:30;90940.84;;;-0.37;73.62
39455;BME280;25155;41.890;23.446;2023-01-28T01:01:07;90940.16;;;-0.49;73.47
39455;BME280;25155;41.890;23.446;2023-01-28T01:03:36;90939.53;;;-0.56;73.59
39455;BME280;25155;41.890;23.446;2023-01-28T01:06:05;90935.34;;;-0.63;74.10
39455;BME280;25155;41.890;23.446;2023-01-28T01:08:33;90947.38;;;-0.68;74.38
39455;BME280;25155;41.890;23.446;2023-01-28T01:11:06;90944.00;;;-0.69;74.20
39455;BME280;25155;41.890;23.446;2023-01-28T01:13:35;90938.84;;;-0.69;74.68
39455;BME280;25155;41.890;23.446;2023-01-28T01:16:04;90939.38;;;-0.67;74.64
39455;BME280;25155;41.890;23.446;2023-01-28T01:18:34;90935.56;;;-0.64;74.60
39455;BME280;25155;41.890;23.446;2023-01-28T01:21:06;90936.91;;;-0.62;74.56
39455;BME280;25155;41.890;23.446;2023-01-28T01:23:33;90942.47;;;-0.87;75.00
39455;BME280;25155;41.890;23.446;2023-01-28T01:26:01;90940.97;;;-0.66;74.88
39455;BME280;25155;41.890;23.446;2023-01-28T01:28:29;90939.25;;;-0.60;74.33
39455;BME280;25155;41.890;23.446;2023-01-28T01:31:00;90945.16;;;-0.60;74.12
39455;BME280;25155;41.890;23.446;2023-01-28T01:33:28;90940.84;;;-0.54;74.37
39455;BME280;25155;41.890;23.446;2023-01-28T01:35:58;90943.19;;;-0.52;74.16
39455;BME280;25155;41.890;23.446;2023-01-28T01:38:26;90949.66;;;-0.50;74.14
39455;BME280;25155;41.890;23.446;2023-01-28T01:40:56;90944.53;;;-0.50;73.93
39455;BME280;25155;41.890;23.446;2023-01-28T01:43:25;90948.41;;;-0.47;74.07
39455;BME280;25155;41.890;23.446;2023-01-28T01:46:12;90946.63;;;-0.47;74.48
39455;BME280;25155;41.890;23.446;2023-01-28T01:48:40;90951.53;;;-0.45;73.82
39455;BME280;25155;41.890;23.446;2023-01-28T01:51:11;90951.53;;;-0.45;74.05
39455;BME280;25155;41.890;23.446;2023-01-28T01:53:42;90945.28;;;-0.49;73.62
39455;BME280;25155;41.890;23.446;2023-01-28T01:56:13;90948.56;;;-0.54;73.80
39455;BME280;25155;41.890;23.446;2023-01-28T01:58:43;90958.03;;;-0.60;73.56
39455;BME280;25155;41.890;23.446;2023-01-28T02:01:13;90964.97;;;-0.60;73.81
39455;BME280;25155;41.890;23.446;2023-01-28T02:03:46;90957.72;;;-0.63;73.57
39455;BME280;25155;41.890;23.446;2023-01-28T02:06:18;90967.00;;;-0.62;74.13
39455;BME280;25155;41.890;23.446;2023-01-28T02:08:46;90969.88;;;-0.58;74.40
39455;BME280;25155;41.890;23.446;2023-01-28T02:11:14;90969.09;;;-0.59;73.89
39455;BME280;25155;41.890;23.446;2023-01-28T02:13:46;90968.09;;;-0.58;74.15
39455;BME280;25155;41.890;23.446;2023-01-28T02:16:15;90967.38;;;-0.53;74.23
39455;BME280;25155;41.890;23.446;2023-01-28T02:18:43;90966.34;;;-0.52;73.82
39455;BME280;25155;41.890;23.446;2023-01-28T02:21:42;90965.75;;;-0.60;74.01
39455;BME280;25155;41.890;23.446;2023-01-28T02:24:39;90975.28;;;-0.60;73.74
39455;BME280;25155;41.890;23.446;2023-01-28T02:27:29;90980.09;;;-0.64;73.66
39455;BME280;25155;41.890;23.446;2023-01-28T02:30:02;90972.94;;;-0.62;73.66
39455;BME280;25155;41.890;23.446;2023-01-28T02:32:39;90984.00;;;-0.61;74.01
39455;BME280;25155;41.890;23.446;2023-01-28T02:35:13;90976.28;;;-0.61;73.87
39455;BME280;25155;41.890;23.446;2023-01-28T02:37:46;90981.44;;;-0.61;73.58
39455;BME280;25155;41.890;23.446;2023-01-28T02:40:21;90980.09;;;-0.64;73.40
39455;BME280;25155;41.890;23.446;2023-01-28T02:42:49;90985.25;;;-0.64;73.25
39455;BME280;25155;41.890;23.446;2023-01-28T02:45:20;90987.75;;;-0.69;73.70
39455;BME280;25155;41.890;23.446;2023-01-28T02:47:48;90988.78;;;-0.70;72.95
39455;BME280;25155;41.890;23.446;2023-01-28T02:50:26;90990.72;;;-0.77;73.03
39455;BME280;25155;41.890;23.446;2023-01-28T02:53:06;90984.50;;;-0.81;72.95
39455;BME280;25155;41.890;23.446;2023-01-28T02:56:02;90992.13;;;-0.86;73.18
39455;BME280;25155;41.890;23.446;2023-01-28T02:58:37;90981.38;;;-0.83;73.34
39455;BME280;25155;41.890;23.446;2023-01-28T03:01:15;90989.63;;;-0.81;73.27
39455;BME280;25155;41.890;23.446;2023-01-28T03:03:54;90994.31;;;-0.78;73.25
39455;BME280;25155;41.890;23.446;2023-01-28T03:06:29;90983.56;;;-0.75;73.62
39455;BME280;25155;41.890;23.446;2023-01-28T03:09:03;90988.44;;;-0.73;73.70
39455;BME280;25155;41.890;23.446;2023-01-28T03:11:55;90990.72;;;-0.77;73.37
39455;BME280;25155;41.890;23.446;2023-01-28T03:14:42;90994.09;;;-0.76;73.34
39455;BME280;25155;41.890;23.446;2023-01-28T03:17:35;90992.28;;;-0.76;73.83
39455;BME280;25155;41.890;23.446;2023-01-28T03:20:24;90991.50;;;-0.76;73.87
39455;BME280;25155;41.890;23.446;2023-01-28T03:23:13;90995.84;;;-0.77;73.36
39455;BME280;25155;41.890;23.446;2023-01-28T03:26:00;90995.63;;;-0.75;73.38
39455;BME280;25155;41.890;23.446;2023-01-28T03:28:47;90988.94;;;-0.76;73.79
39455;BME280;25155;41.890;23.446;2023-01-28T03:31:34;90999.00;;;-0.75;73.88
39455;BME280;25155;41.890;23.446;2023-01-28T03:34:21;90999.00;;;-0.75;73.36
39455;BME280;25155;41.890;23.446;2023-01-28T03:37:06;90994.16;;;-0.71;73.55
39455;BME280;25155;41.890;23.446;2023-01-28T03:39:36;90995.69;;;-0.70;73.45
39455;BME280;25155;41.890;23.446;2023-01-28T03:42:06;90992.06;;;-0.74;73.17
39455;BME280;25155;41.890;23.446;2023-01-28T03:44:34;91000.06;;;-0.71;73.64
39455;BME280;25155;41.890;23.446;2023-01-28T03:47:18;91001.56;;;-0.75;73.47
39455;BME280;25155;41.890;23.446;2023-01-28T03:49:49;91000.22;;;-0.78;73.36
39455;BME280;25155;41.890;23.446;2023-01-28T03:52:19;91004.59;;;-0.78;73.02
39455;BME280;25155;41.890;23.446;2023-01-28T03:54:46;91006.16;;;-0.77;73.06
39455;BME280;25155;41.890;23.446;2023-01-28T03:57:15;90995.84;;;-0.77;73.18
39455;BME280;25155;41.890;23.446;2023-01-28T03:59:43;91006.63;;;-0.80;72.80
39455;BME280;25155;41.890;23.446;2023-01-28T04:02:11;91005.38;;;-0.94;73.23
39455;BME280;25155;41.890;23.446;2023-01-28T04:04:40;91006.94;;;-0.93;73.07
39455;BME280;25155;41.890;23.446;2023-01-28T04:07:10;91017.69;;;-0.97;73.69
39455;BME280;25155;41.890;23.446;2023-01-28T04:09:39;91015.63;;;-1.28;74.22
39455;BME280;25155;41.890;23.446;2023-01-28T04:12:06;91018.31;;;-1.06;74.10
39455;BME280;25155;41.890;23.446;2023-01-28T04:14:34;91018.16;;;-1.00;73.74
39455;BME280;25155;41.890;23.446;2023-01-28T04:17:01;91020.81;;;-0.94;73.98
39455;BME280;25155;41.890;23.446;2023-01-28T04:19:28;91018.78;;;-0.92;73.34
39455;BME280;25155;41.890;23.446;2023-01-28T04:22:03;91018.78;;;-0.92;73.44
39455;BME280;25155;41.890;23.446;2023-01-28T04:24:32;91023.16;;;-0.93;73.79
39455;BME280;25155;41.890;23.446;2023-01-28T04:27:00;91022.69;;;-0.90;73.96
39455;BME280;25155;41.890;23.446;2023-01-28T04:29:27;91025.81;;;-0.88;73.90
39455;BME280;25155;41.890;23.446;2023-01-28T04:31:54;91018.63;;;-0.86;73.48
39455;BME280;25155;41.890;23.446;2023-01-28T04:34:21;91028.69;;;-0.84;73.80
39455;BME280;25155;41.890;23.446;2023-01-28T04:36:49;91026.88;;;-0.84;73.22
39455;BME280;25155;41.890;23.446;2023-01-28T04:39:16;91037.19;;;-0.84;73.78
39455;BME280;25155;41.890;23.446;2023-01-28T04:41:44;91035.63;;;-0.85;73.72
39455;BME280;25155;41.890;23.446;2023-01-28T04:44:11;91038.75;;;-0.83;73.68
39455;BME280;25155;41.890;23.446;2023-01-28T04:46:41;91034.38;;;-0.82;73.32
39455;BME280;25155;41.890;23.446;2023-01-28T04:49:10;91042.88;;;-0.82;73.53
39455;BME280;25155;41.890;23.446;2023-01-28T04:51:37;91035.88;;;-0.86;73.54
39455;BME280;25155;41.890;23.446;2023-01-28T04:54:05;91048.00;;;-0.82;73.17
39455;BME280;25155;41.890;23.446;2023-01-28T04:56:32;91044.13;;;-0.84;73.23
39455;BME280;25155;41.890;23.446;2023-01-28T04:59:01;91047.47;;;-0.84;73.02
39455;BME280;25155;41.890;23.446;2023-01-28T05:01:29;91054.97;;;-0.82;73.34
39455;BME280;25155;41.890;23.446;2023-01-28T05:03:56;91047.25;;;-0.82;73.15
39455;BME280;25155;41.890;23.446;2023-01-28T05:06:24;91049.03;;;-0.83;73.46
39455;BME280;25155;41.890;23.446;2023-01-28T05:08:51;91050.59;;;-0.82;73.47
39455;BME280;25155;41.890;23.446;2023-01-28T05:11:19;91048.00;;;-0.82;73.40
39455;BME280;25155;41.890;23.446;2023-01-28T05:13:46;91054.97;;;-0.82;73.27
39455;BME280;25155;41.890;23.446;2023-01-28T05:16:15;91058.00;;;-0.85;72.85
39455;BME280;25155;41.890;23.446;2023-01-28T05:18:42;91054.41;;;-0.84;73.33
39455;BME280;25155;41.890;23.446;2023-01-28T05:21:12;91063.13;;;-0.85;73.03
39455;BME280;25155;41.890;23.446;2023-01-28T05:23:39;91059.03;;;-0.86;73.46
39455;BME280;25155;41.890;23.446;2023-01-28T05:26:07;91074.00;;;-0.83;73.42
39455;BME280;25155;41.890;23.446;2023-01-28T05:28:35;91060.34;;;-0.84;73.45
39455;BME280;25155;41.890;23.446;2023-01-28T05:31:04;91068.50;;;-0.87;72.81
39455;BME280;25155;41.890;23.446;2023-01-28T05:33:34;91077.50;;;-0.89;73.30
39455;BME280;25155;41.890;23.446;2023-01-28T05:36:01;91069.78;;;-0.89;72.60
39455;BME280;25155;41.890;23.446;2023-01-28T05:38:28;91072.25;;;-0.94;72.59
39455;BME280;25155;41.890;23.446;2023-01-28T05:40:56;91075.84;;;-0.95;73.24
39455;BME280;25155;41.890;23.446;2023-01-28T05:43:23;91081.44;;;-0.99;73.20
39455;BME280;25155;41.890;23.446;2023-01-28T05:45:50;91088.16;;;-0.98;73.38
39455;BME280;25155;41.890;23.446;2023-01-28T05:48:17;91089.97;;;-0.98;73.37
39455;BME280;25155;41.890;23.446;2023-01-28T05:50:48;91095.31;;;-1.00;73.48
39455;BME280;25155;41.890;23.446;2023-01-28T05:53:15;91098.44;;;-0.98;73.14
39455;BME280;25155;41.890;23.446;2023-01-28T05:55:47;91096.63;;;-0.97;73.48
39455;BME280;25155;41.890;23.446;2023-01-28T05:58:14;91096.88;;;-0.99;73.51
39455;BME280;25155;41.890;23.446;2023-01-28T06:00:42;91103.13;;;-0.94;73.36
39455;BME280;25155;41.890;23.446;2023-01-28T06:03:10;91107.00;;;-0.92;73.59
39455;BME280;25155;41.890;23.446;2023-01-28T06:05:38;91114.19;;;-0.94;73.49
39455;BME280;25155;41.890;23.446;2023-01-28T06:08:07;91120.34;;;-0.95;73.46
39455;BME280;25155;41.890;23.446;2023-01-28T06:10:34;91111.84;;;-0.95;73.48
39455;BME280;25155;41.890;23.446;2023-01-28T06:13:02;91126.81;;;-0.92;73.48
39455;BME280;25155;41.890;23.446;2023-01-28T06:15:29;91141.25;;;-0.91;73.15
39455;BME280;25155;41.890;23.446;2023-01-28T06:17:57;91141.50;;;-0.93;73.17
39455;BME280;25155;41.890;23.446;2023-01-28T06:20:24;91139.06;;;-1.00;73.26
39455;BME280;25155;41.890;23.446;2023-01-28T06:22:52;91145.50;;;-0.97;73.51
39455;BME280;25155;41.890;23.446;2023-01-28T06:25:20;91148.31;;;-0.99;73.59
39455;BME280;25155;41.890;23.446;2023-01-28T06:27:48;91149.66;;;-0.96;73.70
39455;BME280;25155;41.890;23.446;2023-01-28T06:30:15;91153.00;;;-0.95;73.71
39455;BME280;25155;41.890;23.446;2023-01-28T06:32:43;91154.00;;;-0.97;73.21
39455;BME280;25155;41.890;23.446;2023-01-28T06:35:11;91155.47;;;-1.01;73.30
39455;BME280;25155;41.890;23.446;2023-01-28T06:37:38;91168.13;;;-0.99;73.40
39455;BME280;25155;41.890;23.446;2023-01-28T06:40:07;91166.22;;;-1.04;73.39
39455;BME280;25155;41.890;23.446;2023-01-28T06:42:37;91173.84;;;-1.09;73.23
39455;BME280;25155;41.890;23.446;2023-01-28T06:45:05;91176.56;;;-1.16;72.40
39455;BME280;25155;41.890;23.446;2023-01-28T06:47:32;91175.69;;;-1.21;72.46
39455;BME280;25155;41.890;23.446;2023-01-28T06:50:00;91173.13;;;-1.33;70.87
39455;BME280;25155;41.890;23.446;2023-01-28T06:52:27;91180.56;;;-1.60;70.24
39455;BME280;25155;41.890;23.446;2023-01-28T06:54:55;91176.19;;;-1.72;71.40
39455;BME280;25155;41.890;23.446;2023-01-28T06:57:22;91176.41;;;-1.73;71.06
39455;BME280;25155;41.890;23.446;2023-01-28T06:59:51;91176.09;;;-1.88;71.33
39455;BME280;25155;41.890;23.446;2023-01-28T07:02:18;91178.44;;;-1.87;72.47
39455;BME280;25155;41.890;23.446;2023-01-28T07:04:46;91191.28;;;-1.87;72.09
39455;BME280;25155;41.890;23.446;2023-01-28T07:07:14;91185.94;;;-1.85;72.53
39455;BME280;25155;41.890;23.446;2023-01-28T07:09:41;91190.97;;;-1.79;72.84
39455;BME280;25155;41.890;23.446;2023-01-28T07:12:09;91186.16;;;-1.75;73.37
39455;BME280;25155;41.890;23.446;2023-01-28T07:14:36;91194.28;;;-1.66;73.45
39455;BME280;25155;41.890;23.446;2023-01-28T07:17:05;91209.59;;;-1.60;73.30
39455;BME280;25155;41.890;23.446;2023-01-28T07:19:32;91204.91;;;-1.51;73.23
39455;BME280;25155;41.890;23.446;2023-01-28T07:21:59;91216.84;;;-1.45;73.68
39455;BME280;25155;41.890;23.446;2023-01-28T07:24:28;91214.28;;;-1.45;74.35
39455;BME280;25155;41.890;23.446;2023-01-28T07:26:55;91220.44;;;-1.46;74.05
39455;BME280;25155;41.890;23.446;2023-01-28T07:29:22;91222.44;;;-1.48;73.53
39455;BME280;25155;41.890;23.446;2023-01-28T07:31:50;91220.31;;;-1.51;73.20
39455;BME280;25155;41.890;23.446;2023-01-28T07:34:19;91223.34;;;-1.54;72.74
39455;BME280;25155;41.890;23.446;2023-01-28T07:36:46;91230.47;;;-1.56;72.22
39455;BME280;25155;41.890;23.446;2023-01-28T07:39:13;91226.59;;;-1.59;72.58
39455;BME280;25155;41.890;23.446;2023-01-28T07:41:40;91227.25;;;-1.63;71.71
39455;BME280;25155;41.890;23.446;2023-01-28T07:44:07;91226.69;;;-1.65;71.94
39455;BME280;25155;41.890;23.446;2023-01-28T07:46:35;91227.69;;;-1.66;72.51
39455;BME280;25155;41.890;23.446;2023-01-28T07:49:02;91234.50;;;-1.60;73.27
39455;BME280;25155;41.890;23.446;2023-01-28T07:51:31;91236.97;;;-1.65;72.65
39455;BME280;25155;41.890;23.446;2023-01-28T07:53:58;91241.56;;;-1.56;72.46
39455;BME280;25155;41.890;23.446;2023-01-28T07:56:25;91243.22;;;-1.61;72.51
39455;BME280;25155;41.890;23.446;2023-01-28T07:58:54;91240.97;;;-1.69;72.26
39455;BME280;25155;41.890;23.446;2023-01-28T08:01:21;91248.69;;;-1.69;73.10
39455;BME280;25155;41.890;23.446;2023-01-28T08:03:48;91247.25;;;-1.65;72.78
39455;BME280;25155;41.890;23.446;2023-01-28T08:06:16;91247.47;;;-1.67;72.56
39455;BME280;25155;41.890;23.446;2023-01-28T08:08:46;91252.84;;;-1.68;72.54
39455;BME280;25155;41.890;23.446;2023-01-28T08:11:13;91250.25;;;-1.68;72.74
39455;BME280;25155;41.890;23.446;2023-01-28T08:13:40;91253.59;;;-1.68;72.18
39455;BME280;25155;41.890;23.446;2023-01-28T08:16:07;91253.06;;;-1.70;72.06
39455;BME280;25155;41.890;23.446;2023-01-28T08:18:34;91251.25;;;-1.69;72.25
39455;BME280;25155;41.890;23.446;2023-01-28T08:21:02;91258.63;;;-1.73;71.94
39455;BME280;25155;41.890;23.446;2023-01-28T08:23:30;91252.72;;;-1.74;72.24
39455;BME280;25155;41.890;23.446;2023-01-28T08:26:00;91260.88;;;-1.77;72.06
39455;BME280;25155;41.890;23.446;2023-01-28T08:28:28;91262.78;;;-1.72;72.23
39455;BME280;25155;41.890;23.446;2023-01-28T08:30:58;91251.81;;;-1.79;72.39
39455;BME280;25155;41.890;23.446;2023-01-28T08:33:25;91254.84;;;-1.82;72.68
39455;BME280;25155;41.890;23.446;2023-01-28T08:35:53;91259.28;;;-1.78;72.87
39455;BME280;25155;41.890;23.446;2023-01-28T08:38:20;91255.19;;;-1.79;73.30
39455;BME280;25155;41.890;23.446;2023-01-28T08:40:47;91257.63;;;-1.84;72.58
39455;BME280;25155;41.890;23.446;2023-01-28T08:43:17;91265.00;;;-1.76;72.87
39455;BME280;25155;41.890;23.446;2023-01-28T08:45:44;91267.69;;;-1.71;72.45
39455;BME280;25155;41.890;23.446;2023-01-28T08:48:14;91267.59;;;-1.76;72.83
39455;BME280;25155;41.890;23.446;2023-01-28T08:50:42;91267.69;;;-1.71;73.18
39455;BME280;25155;41.890;23.446;2023-01-28T08:53:12;91275.84;;;-1.74;72.88
39455;BME280;25155;41.890;23.446;2023-01-28T08:55:39;91273.28;;;-1.74;73.06
39455;BME280;25155;41.890;23.446;2023-01-28T08:58:10;91274.38;;;-1.69;73.26
39455;BME280;25155;41.890;23.446;2023-01-28T09:00:40;91279.31;;;-1.68;73.54
39455;BME280;25155;41.890;23.446;2023-01-28T09:03:08;91279.78;;;-1.59;73.88
39455;BME280;25155;41.890;23.446;2023-01-28T09:05:36;91283.88;;;-1.58;73.16
39455;BME280;25155;41.890;23.446;2023-01-28T09:08:06;91281.66;;;-1.66;72.32
39455;BME280;25155;41.890;23.446;2023-01-28T09:10:34;91279.19;;;-1.61;72.90
39455;BME280;25155;41.890;23.446;2023-01-28T09:13:05;91281.97;;;-1.63;72.63
39455;BME280;25155;41.890;23.446;2023-01-28T09:15:34;91276.19;;;-1.58;72.82
39455;BME280;25155;41.890;23.446;2023-01-28T09:18:03;91279.88;;;-1.54;72.66
39455;BME280;25155;41.890;23.446;2023-01-28T09:20:31;91273.28;;;-1.38;72.58
39455;BME280;25155;41.890;23.446;2023-01-28T09:22:59;91275.19;;;-1.34;72.24
39455;BME280;25155;41.890;23.446;2023-01-28T09:25:26;91268.34;;;-1.40;72.12
39455;BME280;25155;41.890;23.446;2023-01-28T09:27:54;91275.50;;;-1.30;72.59
39455;BME280;25155;41.890;23.446;2023-01-28T09:30:21;91275.25;;;-1.17;73.00
39455;BME280;25155;41.890;23.446;2023-01-28T09:32:49;91265.34;;;-1.13;72.36
39455;BME280;25155;41.890;23.446;2023-01-28T09:35:18;91268.69;;;-1.12;71.75
39455;BME280;25155;41.890;23.446;2023-01-28T09:37:46;91267.00;;;-1.19;72.23
39455;BME280;25155;41.890;23.446;2023-01-28T09:40:16;91265.69;;;-1.21;73.08
39455;BME280;25155;41.890;23.446;2023-01-28T09:42:56;91270.00;;;-1.10;72.01
39455;BME280;25155;41.890;23.446;2023-01-28T09:45:31;91261.84;;;-1.07;72.22
39455;BME280;25155;41.890;23.446;2023-01-28T09:48:04;91271.88;;;-0.93;73.05
39455;BME280;25155;41.890;23.446;2023-01-28T09:50:35;91271.97;;;-0.88;70.54
39455;BME280;25155;41.890;23.446;2023-01-28T09:53:09;91271.44;;;-0.90;70.94
39455;BME280;25155;41.890;23.446;2023-01-28T09:55:39;91264.69;;;-0.80;71.20
39455;BME280;25155;41.890;23.446;2023-01-28T09:58:10;91266.34;;;-0.73;70.75
39455;BME280;25155;41.890;23.446;2023-01-28T10:00:41;91264.84;;;-0.86;69.66
39455;BME280;25155;41.890;23.446;2023-01-28T10:03:34;91267.75;;;-0.94;69.82
39455;BME280;25155;41.890;23.446;2023-01-28T10:06:21;91257.59;;;-1.01;71.21
39455;BME280;25155;41.890;23.446;2023-01-28T10:09:10;91265.31;;;-1.01;70.14
39455;BME280;25155;41.890;23.446;2023-01-28T10:12:03;91261.09;;;-1.19;70.43
39455;BME280;25155;41.890;23.446;2023-01-28T10:14:46;91257.59;;;-1.25;70.50
39455;BME280;25155;41.890;23.446;2023-01-28T10:17:17;91255.16;;;-1.20;71.00
39455;BME280;25155;41.890;23.446;2023-01-28T10:19:52;91257.03;;;-1.15;71.35
39455;BME280;25155;41.890;23.446;2023-01-28T10:22:27;91248.66;;;-1.10;71.43
39455;BME280;25155;41.890;23.446;2023-01-28T10:24:59;91267.19;;;-1.08;71.56
39455;BME280;25155;41.890;23.446;2023-01-28T10:27:35;91256.25;;;-1.04;71.69
39455;BME280;25155;41.890;23.446;2023-01-28T10:30:16;91250.22;;;-1.09;70.90
39455;BME280;25155;41.890;23.446;2023-01-28T10:32:51;91259.25;;;-1.07;71.10
39455;BME280;25155;41.890;23.446;2023-01-28T10:35:21;91260.94;;;-1.01;70.66
39455;BME280;25155;41.890;23.446;2023-01-28T10:37:51;91263.16;;;-0.92;70.06
39455;BME280;25155;41.890;23.446;2023-01-28T10:40:20;91260.59;;;-0.92;71.86
39455;BME280;25155;41.890;23.446;2023-01-28T10:42:48;91259.22;;;-0.83;71.41
39455;BME280;25155;41.890;23.446;2023-01-28T10:45:17;91260.31;;;-0.79;70.56
39455;BME280;25155;41.890;23.446;2023-01-28T10:47:49;91261.91;;;-0.78;70.61
39455;BME280;25155;41.890;23.446;2023-01-28T10:50:22;91254.19;;;-0.78;70.31
39455;BME280;25155;41.890;23.446;2023-01-28T10:52:55;91264.66;;;-0.68;69.89
39455;BME280;25155;41.890;23.446;2023-01-28T10:55:26;91256.94;;;-0.68;69.22
39455;BME280;25155;41.890;23.446;2023-01-28T10:57:57;91256.50;;;-0.65;69.27
39455;BME280;25155;41.890;23.446;2023-01-28T11:00:26;91250.53;;;-0.65;69.42
39455;BME280;25155;41.890;23.446;2023-01-28T11:02:55;91249.94;;;-0.55;69.43
39455;BME280;25155;41.890;23.446;2023-01-28T11:05:25;91256.06;;;-0.45;69.59
39455;BME280;25155;41.890;23.446;2023-01-28T11:08:05;91248.28;;;-0.33;69.28
39455;BME280;25155;41.890;23.446;2023-01-28T11:10:34;91246.56;;;-0.27;68.56
39455;BME280;25155;41.890;23.446;2023-01-28T11:13:05;91243.16;;;-0.16;68.41
39455;BME280;25155;41.890;23.446;2023-01-28T11:15:45;91240.53;;;-0.04;69.15
39455;BME280;25155;41.890;23.446;2023-01-28T11:18:17;91239.91;;;0.06;68.79
39455;BME280;25155;41.890;23.446;2023-01-28T11:20:51;91237.59;;;0.21;69.68
39455;BME280;25155;41.890;23.446;2023-01-28T11:23:23;91234.47;;;0.36;68.12
39455;BME280;25155;41.890;23.446;2023-01-28T11:26:01;91243.41;;;0.50;67.45
39455;BME280;25155;41.890;23.446;2023-01-28T11:28:29;91237.25;;;0.51;65.82
39455;BME280;25155;41.890;23.446;2023-01-28T11:30:59;91236.25;;;0.53;65.93
39455;BME280;25155;41.890;23.446;2023-01-28T11:33:32;91235.84;;;0.44;65.72
39455;BME280;25155;41.890;23.446;2023-01-28T11:36:10;91245.84;;;0.40;66.25
39455;BME280;25155;41.890;23.446;2023-01-28T11:38:49;91239.22;;;0.44;66.38
39455;BME280;25155;41.890;23.446;2023-01-28T11:41:18;91241.88;;;0.49;66.61
39455;BME280;25155;41.890;23.446;2023-01-28T11:43:49;91241.28;;;0.64;66.73
39455;BME280;25155;41.890;23.446;2023-01-28T11:46:36;91237.97;;;0.69;65.96
39455;BME280;25155;41.890;23.446;2023-01-28T11:49:13;91237.28;;;0.74;66.38
39455;BME280;25155;41.890;23.446;2023-01-28T11:51:47;91237.66;;;0.82;66.15
39455;BME280;25155;41.890;23.446;2023-01-28T11:54:32;91245.31;;;0.77;65.45
39455;BME280;25155;41.890;23.446;2023-01-28T11:57:19;91250.88;;;0.69;64.63
39455;BME280;25155;41.890;23.446;2023-01-28T12:02:56;91240.34;;;0.54;65.16
39455;BME280;25155;41.890;23.446;2023-01-28T12:05:50;91236.78;;;0.55;65.35
39455;BME280;25155;41.890;23.446;2023-01-28T12:08:22;91242.06;;;0.65;66.16
39455;BME280;25155;41.890;23.446;2023-01-28T12:11:07;91245.06;;;0.57;63.86
39455;BME280;25155;41.890;23.446;2023-01-28T12:13:50;91251.44;;;0.54;64.28
39455;BME280;25155;41.890;23.446;2023-01-28T12:16:41;91250.22;;;0.57;64.98
39455;BME280;25155;41.890;23.446;2023-01-28T12:19:25;91248.34;;;0.52;64.89
39455;BME280;25155;41.890;23.446;2023-01-28T12:22:15;91252.50;;;0.36;64.58
39455;BME280;25155;41.890;23.446;2023-01-28T12:25:00;91253.66;;;0.28;65.26
39455;BME280;25155;41.890;23.446;2023-01-28T12:27:45;91253.81;;;0.22;64.73
39455;BME280;25155;41.890;23.446;2023-01-28T12:30:23;91252.94;;;0.16;65.47
39455;BME280;25155;41.890;23.446;2023-01-28T12:33:12;91261.88;;;0.08;66.32
39455;BME280;25155;41.890;23.446;2023-01-28T12:35:49;91269.88;;;-0.05;66.23
39455;BME280;25155;41.890;23.446;2023-01-28T12:38:29;91266.56;;;-0.17;65.90
39455;BME280;25155;41.890;23.446;2023-01-28T12:41:02;91271.97;;;-0.48;66.15
39455;BME280;25155;41.890;23.446;2023-01-28T12:43:50;91266.06;;;-0.48;66.04
39455;BME280;25155;41.890;23.446;2023-01-28T12:46:28;91274.47;;;-0.53;66.78
39455;BME280;25155;41.890;23.446;2023-01-28T12:49:02;91278.16;;;-0.61;66.11
39455;BME280;25155;41.890;23.446;2023-01-28T12:51:34;91279.34;;;-0.68;66.83
39455;BME280;25155;41.890;23.446;2023-01-28T12:54:11;91275.66;;;-0.84;66.64
39455;BME280;25155;41.890;23.446;2023-01-28T12:56:44;91287.66;;;-1.02;67.36
39455;BME280;25155;41.890;23.446;2023-01-28T12:59:20;91283.22;;;-1.06;66.86
39455;BME280;25155;41.890;23.446;2023-01-28T13:01:54;91291.69;;;-1.06;67.88
39455;BME280;25155;41.890;23.446;2023-01-28T13:04:30;91295.16;;;-1.12;67.81
39455;BME280;25155;41.890;23.446;2023-01-28T13:07:04;91294.63;;;-1.14;68.42
39455;BME280;25155;41.890;23.446;2023-01-28T13:09:35;91295.06;;;-1.17;68.04
39455;BME280;25155;41.890;23.446;2023-01-28T13:12:05;91292.50;;;-1.17;68.57
39455;BME280;25155;41.890;23.446;2023-01-28T13:14:34;91297.63;;;-1.17;67.68
39455;BME280;25155;41.890;23.446;2023-01-28T13:17:09;91309.84;;;-1.24;68.43